createdAt,value
2023-04-26T00:01:39.158Z,57.30
2023-04-26T00:04:07.909Z,57.40
2023-04-26T00:06:37.124Z,58.00
2023-04-26T00:09:05.119Z,58.10
2023-04-26T00:11:32.383Z,58.00
2023-04-26T00:13:59.787Z,57.70
2023-04-26T00:16:27.132Z,57.60
2023-04-26T00:18:54.871Z,57.50
2023-04-26T00:21:22.605Z,57.60
2023-04-26T00:23:50.274Z,57.90
2023-04-26T00:26:17.592Z,58.10
2023-04-26T00:28:44.999Z,58.50
2023-04-26T00:31:18.774Z,58.80
2023-04-26T00:33:46.216Z,59.10
2023-04-26T00:36:14.436Z,59.10
2023-04-26T00:38:41.698Z,59.60
2023-04-26T00:41:09.402Z,59.90
2023-04-26T00:43:36.695Z,59.80
2023-04-26T00:46:04.343Z,59.30
2023-04-26T00:48:31.800Z,58.90
2023-04-26T00:50:59.014Z,59.10
2023-04-26T00:53:27.166Z,59.40
2023-04-26T00:55:54.514Z,59.50
2023-04-26T00:58:21.909Z,59.60
2023-04-26T01:00:50.247Z,59.40
2023-04-26T01:03:17.696Z,59.20
2023-04-26T01:05:45.800Z,59.10
2023-04-26T01:08:17.042Z,58.80
2023-04-26T01:10:44.896Z,58.80
2023-04-26T01:13:12.926Z,58.90
2023-04-26T01:15:47.426Z,58.50
2023-04-26T01:18:15.410Z,58.50
2023-04-26T01:20:43.202Z,58.40
2023-04-26T01:23:11.834Z,58.50
2023-04-26T01:25:39.690Z,58.40
2023-04-26T01:28:06.998Z,58.10
2023-04-26T01:30:34.223Z,57.90
2023-04-26T01:33:03.940Z,58.00
2023-04-26T01:35:31.377Z,58.10
2023-04-26T01:37:58.594Z,58.00
2023-04-26T01:40:26.117Z,57.80
2023-04-26T01:42:53.420Z,57.80
2023-04-26T01:45:20.959Z,57.80
2023-04-26T01:48:07.333Z,57.50
2023-04-26T01:50:34.869Z,57.50
2023-04-26T01:53:02.237Z,57.60
2023-04-26T01:55:29.435Z,57.50
2023-04-26T01:57:57.010Z,57.30
2023-04-26T02:00:24.393Z,57.30
2023-04-26T02:02:55.381Z,57.30
2023-04-26T02:05:25.107Z,57.50
2023-04-26T02:07:52.487Z,57.50
2023-04-26T02:10:19.801Z,57.60
2023-04-26T02:12:47.091Z,57.70
2023-04-26T02:15:15.192Z,57.80
2023-04-26T02:17:43.255Z,57.70
2023-04-26T02:20:11.392Z,57.70
2023-04-26T02:22:38.774Z,57.80
2023-04-26T02:25:07.282Z,57.90
2023-04-26T02:27:34.679Z,57.90
2023-04-26T02:30:02.243Z,58.00
2023-04-26T02:32:30.048Z,58.10
2023-04-26T02:34:58.516Z,58.10
2023-04-26T02:37:27.065Z,58.10
2023-04-26T02:39:54.611Z,58.20
2023-04-26T02:42:22.063Z,58.10
2023-04-26T02:44:49.430Z,58.30
2023-04-26T02:47:17.616Z,58.30
2023-04-26T02:49:45.093Z,58.50
2023-04-26T02:52:12.300Z,58.60
2023-04-26T02:54:39.756Z,58.90
2023-04-26T02:57:08.247Z,59.10
2023-04-26T02:59:35.685Z,59.50
2023-04-26T03:02:03.123Z,59.60
2023-04-26T03:04:34.112Z,59.70
2023-04-26T03:07:02.908Z,60.00
2023-04-26T03:09:30.911Z,60.10
2023-04-26T03:11:58.974Z,60.20
2023-04-26T03:14:27.170Z,60.40
2023-04-26T03:16:56.755Z,60.10
2023-04-26T03:19:25.789Z,60.30
2023-04-26T03:21:54.774Z,60.40
2023-04-26T03:24:23.632Z,60.30
2023-04-26T03:26:51.221Z,60.00
2023-04-26T03:29:19.248Z,60.20
2023-04-26T03:31:46.682Z,59.90
2023-04-26T03:34:14.517Z,59.80
2023-04-26T03:36:42.062Z,59.60
2023-04-26T03:39:09.759Z,59.70
2023-04-26T03:41:39.341Z,59.60
2023-04-26T03:44:08.062Z,59.60
2023-04-26T03:46:35.798Z,59.50
2023-04-26T03:49:03.318Z,59.80
2023-04-26T03:51:31.390Z,59.70
2023-04-26T03:53:59.546Z,59.70
2023-04-26T03:56:27.083Z,59.80
2023-04-26T03:58:55.019Z,59.90
2023-04-26T04:01:22.424Z,60.20
2023-04-26T04:03:49.969Z,60.70
2023-04-26T04:06:17.499Z,60.90
2023-04-26T04:08:44.727Z,61.20
2023-04-26T04:11:12.038Z,61.90
2023-04-26T04:13:40.066Z,62.60
2023-04-26T04:16:10.030Z,62.90
2023-04-26T04:18:37.674Z,63.20
2023-04-26T04:21:05.084Z,63.40
2023-04-26T04:23:32.468Z,63.80
2023-04-26T04:26:03.135Z,64.10
2023-04-26T04:28:30.544Z,64.20
2023-04-26T04:30:58.171Z,64.50
2023-04-26T04:33:28.514Z,64.40
2023-04-26T04:35:57.195Z,64.80
2023-04-26T04:38:24.830Z,65.10
2023-04-26T04:40:53.365Z,65.10
2023-04-26T04:43:21.431Z,64.90
2023-04-26T04:45:49.484Z,64.90
2023-04-26T04:48:17.102Z,65.90
2023-04-26T04:50:45.595Z,65.30
2023-04-26T04:53:13.386Z,65.30
2023-04-26T04:55:41.515Z,65.40
2023-04-26T04:58:10.120Z,65.60
2023-04-26T05:00:38.028Z,65.60
2023-04-26T05:03:26.113Z,65.40
2023-04-26T05:05:53.532Z,65.20
2023-04-26T05:08:21.113Z,65.20
2023-04-26T05:10:48.873Z,65.40
2023-04-26T05:13:16.326Z,66.20
2023-04-26T05:15:44.953Z,65.50
2023-04-26T05:18:12.630Z,65.20
2023-04-26T05:20:40.435Z,64.30
2023-04-26T05:23:07.919Z,63.20
2023-04-26T05:25:39.526Z,62.30
2023-04-26T05:28:29.914Z,60.80
2023-04-26T05:31:15.307Z,59.70
2023-04-26T05:34:01.472Z,58.40
2023-04-26T05:36:37.490Z,57.20
2023-04-26T05:39:08.380Z,56.00
2023-04-26T05:41:35.850Z,54.70
2023-04-26T05:44:03.731Z,53.00
2023-04-26T05:46:31.388Z,52.50
2023-04-26T05:48:58.936Z,51.40
2023-04-26T05:51:26.621Z,49.30
2023-04-26T05:53:54.181Z,47.90
2023-04-26T05:56:23.760Z,47.00
2023-04-26T05:58:51.536Z,46.10
2023-04-26T06:01:19.364Z,45.70
2023-04-26T06:03:47.142Z,45.20
2023-04-26T06:06:18.421Z,44.80
2023-04-26T06:08:45.932Z,41.30
2023-04-26T06:11:13.560Z,41.30
2023-04-26T06:13:43.784Z,41.10
2023-04-26T06:16:11.509Z,41.80
2023-04-26T06:18:38.869Z,41.30
2023-04-26T06:21:08.132Z,40.80
2023-04-26T06:23:36.923Z,39.90
2023-04-26T06:26:04.406Z,39.80
2023-04-26T06:28:32.151Z,39.10
2023-04-26T06:30:59.619Z,37.90
2023-04-26T06:33:27.160Z,37.80
2023-04-26T06:35:54.669Z,37.20
2023-04-26T06:38:22.230Z,36.90
2023-04-26T06:40:49.953Z,35.60
2023-04-26T06:43:18.458Z,34.60
2023-04-26T06:45:57.560Z,33.70
2023-04-26T06:48:25.403Z,34.30
2023-04-26T06:50:53.182Z,35.00
2023-04-26T06:53:22.942Z,34.70
2023-04-26T06:55:50.669Z,33.60
2023-04-26T06:58:18.022Z,34.00
2023-04-26T07:00:45.425Z,32.60
2023-04-26T07:03:12.892Z,33.00
2023-04-26T07:05:41.046Z,31.90
2023-04-26T07:08:08.411Z,31.90
2023-04-26T07:10:35.886Z,31.90
2023-04-26T07:13:03.367Z,32.00
2023-04-26T07:15:31.236Z,31.70
2023-04-26T07:17:58.615Z,32.00
2023-04-26T07:20:26.160Z,31.60
2023-04-26T07:22:53.693Z,30.80
2023-04-26T07:25:21.199Z,29.90
2023-04-26T07:27:51.541Z,29.40
2023-04-26T07:30:19.208Z,29.30
2023-04-26T07:32:46.808Z,28.30
2023-04-26T07:35:16.302Z,28.60
2023-04-26T07:37:45.050Z,28.60
2023-04-26T07:40:13.566Z,28.20
2023-04-26T07:42:41.126Z,28.50
2023-04-26T07:45:09.476Z,28.80
2023-04-26T07:47:37.346Z,28.80
2023-04-26T07:50:05.559Z,29.60
2023-04-26T07:52:32.910Z,29.70
2023-04-26T07:55:00.688Z,30.80
2023-04-26T07:57:28.193Z,32.00
2023-04-26T07:59:55.645Z,32.20
2023-04-26T08:02:29.895Z,31.90
2023-04-26T08:05:05.595Z,31.80
2023-04-26T08:07:33.566Z,32.50
2023-04-26T08:10:00.987Z,32.40
2023-04-26T08:12:28.460Z,32.30
2023-04-26T08:14:55.953Z,31.90
2023-04-26T08:17:23.464Z,32.10
2023-04-26T08:19:51.002Z,32.20
2023-04-26T08:22:19.924Z,32.10
2023-04-26T08:24:51.600Z,32.30
2023-04-26T08:27:19.180Z,32.50
2023-04-26T08:29:46.797Z,32.50
2023-04-26T08:32:14.408Z,31.60
2023-04-26T08:34:41.760Z,32.60
2023-04-26T08:37:09.534Z,32.70
2023-04-26T08:39:36.959Z,33.20
2023-04-26T08:42:14.869Z,33.60
2023-04-26T08:44:44.236Z,33.00
2023-04-26T08:47:31.934Z,33.50
2023-04-26T08:50:02.670Z,33.90
2023-04-26T08:52:31.401Z,33.50
2023-04-26T08:55:00.024Z,32.80
2023-04-26T08:57:27.835Z,32.90
2023-04-26T08:59:57.803Z,32.90
2023-04-26T09:02:25.511Z,33.00
2023-04-26T09:04:53.251Z,33.20
2023-04-26T09:07:22.508Z,33.50
2023-04-26T09:09:51.514Z,34.30
2023-04-26T09:12:20.653Z,34.90
2023-04-26T09:14:48.479Z,35.10
2023-04-26T09:17:29.373Z,35.40
2023-04-26T09:19:58.200Z,34.20
2023-04-26T09:22:29.822Z,33.70
2023-04-26T09:24:57.605Z,32.40
2023-04-26T09:27:34.045Z,31.80
2023-04-26T09:30:05.945Z,31.60
2023-04-26T09:32:48.623Z,32.10
2023-04-26T09:35:43.501Z,31.30
2023-04-26T09:38:16.495Z,32.00
2023-04-26T09:40:44.941Z,31.40
2023-04-26T09:43:14.854Z,32.00
2023-04-26T09:45:50.936Z,32.30
2023-04-26T09:48:28.689Z,33.10
2023-04-26T09:51:00.293Z,32.80
2023-04-26T09:53:38.281Z,32.50
2023-04-26T09:56:19.717Z,32.10
2023-04-26T09:58:47.001Z,32.00
2023-04-26T10:01:16.550Z,31.90
2023-04-26T10:03:45.523Z,32.30
2023-04-26T10:06:13.574Z,33.10
2023-04-26T10:08:41.085Z,33.10
2023-04-26T10:11:11.385Z,32.70
2023-04-26T10:13:39.821Z,32.10
2023-04-26T10:16:08.072Z,32.30
2023-04-26T10:18:36.172Z,31.40
2023-04-26T10:21:16.819Z,31.50
2023-04-26T10:23:44.699Z,31.70
2023-04-26T10:26:48.615Z,32.00
2023-04-26T10:29:16.052Z,32.00
2023-04-26T10:32:02.843Z,32.60
2023-04-26T10:34:31.736Z,33.10
2023-04-26T10:37:16.415Z,32.90
2023-04-26T10:39:45.748Z,33.10
2023-04-26T10:42:24.246Z,32.50
2023-04-26T10:44:53.974Z,32.70
2023-04-26T10:47:30.699Z,32.50
2023-04-26T10:50:09.055Z,32.70
2023-04-26T10:52:56.406Z,33.10
2023-04-26T10:55:42.015Z,33.80
2023-04-26T10:58:32.901Z,34.50
2023-04-26T11:01:30.142Z,34.30
2023-04-26T11:03:57.989Z,34.20
2023-04-26T11:06:26.794Z,34.50
2023-04-26T11:08:55.270Z,34.00
2023-04-26T11:11:29.278Z,34.10
2023-04-26T11:13:57.311Z,33.30
2023-04-26T11:16:29.321Z,33.00
2023-04-26T11:18:56.796Z,33.20
2023-04-26T11:21:26.918Z,33.40
2023-04-26T11:23:55.224Z,33.00
2023-04-26T11:26:22.752Z,32.60
2023-04-26T11:28:50.791Z,33.20
2023-04-26T11:31:19.007Z,33.50
2023-04-26T11:33:49.078Z,34.00
2023-04-26T11:36:19.584Z,33.80
2023-04-26T11:38:47.448Z,34.00
2023-04-26T11:41:14.999Z,34.40
2023-04-26T11:43:42.472Z,34.20
2023-04-26T11:46:10.113Z,33.50
2023-04-26T11:48:38.920Z,34.50
2023-04-26T11:51:08.416Z,34.50
2023-04-26T11:53:41.171Z,33.70
2023-04-26T11:56:17.151Z,34.60
2023-04-26T11:58:49.600Z,35.00
2023-04-26T12:01:28.318Z,34.70
2023-04-26T12:03:58.214Z,33.60
2023-04-26T12:06:41.871Z,33.70
2023-04-26T12:09:11.267Z,33.60
2023-04-26T12:11:39.271Z,33.40
2023-04-26T12:14:07.823Z,33.70
2023-04-26T12:16:36.974Z,33.70
2023-04-26T12:19:08.773Z,33.40
2023-04-26T12:21:43.514Z,33.20
2023-04-26T12:24:25.224Z,32.60
2023-04-26T12:26:52.946Z,33.40
2023-04-26T12:29:20.529Z,33.30
2023-04-26T12:31:48.243Z,33.50
2023-04-26T12:34:15.667Z,33.30
2023-04-26T12:36:44.388Z,33.70
2023-04-26T12:39:14.464Z,33.70
2023-04-26T12:41:43.227Z,33.10
2023-04-26T12:44:11.679Z,33.00
2023-04-26T12:46:39.336Z,33.00
2023-04-26T12:49:07.495Z,32.90
2023-04-26T12:51:34.931Z,32.50
2023-04-26T12:54:02.935Z,33.00
2023-04-26T12:56:30.489Z,33.30
2023-04-26T12:58:57.927Z,33.20
2023-04-26T13:01:26.120Z,33.20
2023-04-26T13:03:55.603Z,33.50
2023-04-26T13:06:23.392Z,33.20
2023-04-26T13:08:51.100Z,33.30
2023-04-26T13:11:18.766Z,32.90
2023-04-26T13:13:46.337Z,33.10
2023-04-26T13:16:13.826Z,32.90
2023-04-26T13:18:41.708Z,33.00
2023-04-26T13:21:09.250Z,32.80
2023-04-26T13:23:36.704Z,32.90
2023-04-26T13:26:04.131Z,33.40
2023-04-26T13:28:31.579Z,33.10
2023-04-26T13:30:59.579Z,33.30
2023-04-26T13:33:27.365Z,33.70
2023-04-26T13:35:55.309Z,33.60
2023-04-26T13:38:22.774Z,33.90
2023-04-26T13:40:50.473Z,33.30
2023-04-26T13:43:18.098Z,33.30
2023-04-26T13:45:45.918Z,33.30
2023-04-26T13:48:13.630Z,33.10
2023-04-26T13:50:41.398Z,33.40
2023-04-26T13:53:08.919Z,32.40
2023-04-26T13:55:36.345Z,32.30
2023-04-26T13:58:03.804Z,31.70
2023-04-26T14:00:31.252Z,31.80
2023-04-26T14:02:58.928Z,31.80
2023-04-26T14:05:26.508Z,32.10
2023-04-26T14:07:55.287Z,33.20
2023-04-26T14:10:23.176Z,33.10
2023-04-26T14:12:50.734Z,33.20
2023-04-26T14:15:18.128Z,33.50
2023-04-26T14:17:48.774Z,33.90
2023-04-26T14:20:16.311Z,33.50
2023-04-26T14:22:43.815Z,33.60
2023-04-26T14:25:11.205Z,33.20
2023-04-26T14:27:39.565Z,32.90
2023-04-26T14:30:07.838Z,33.20
2023-04-26T14:32:35.603Z,32.70
2023-04-26T14:35:03.218Z,32.90
2023-04-26T14:37:31.057Z,32.80
2023-04-26T14:39:58.513Z,33.00
2023-04-26T14:42:25.890Z,32.80
2023-04-26T14:44:53.528Z,33.10
2023-04-26T14:47:21.166Z,33.70
2023-04-26T14:49:48.632Z,33.30
2023-04-26T14:52:16.363Z,33.40
2023-04-26T14:54:43.862Z,33.50
2023-04-26T14:57:11.925Z,33.90
2023-04-26T14:59:39.386Z,33.80
2023-04-26T15:02:07.398Z,34.00
2023-04-26T15:04:37.414Z,34.60
2023-04-26T15:07:04.963Z,34.00
2023-04-26T15:09:32.870Z,33.80
2023-04-26T15:12:02.256Z,33.30
2023-04-26T15:14:29.922Z,32.90
2023-04-26T15:16:57.963Z,32.90
2023-04-26T15:19:25.357Z,33.60
2023-04-26T15:21:52.705Z,33.60
2023-04-26T15:24:20.530Z,33.90
2023-04-26T15:26:48.052Z,33.60
2023-04-26T15:29:15.577Z,34.30
2023-04-26T15:31:43.232Z,34.00
2023-04-26T15:34:10.708Z,34.20
2023-04-26T15:36:38.170Z,33.70
2023-04-26T15:39:05.646Z,33.90
2023-04-26T15:41:33.134Z,33.70
2023-04-26T15:44:00.593Z,33.80
2023-04-26T15:46:28.284Z,34.30
2023-04-26T15:48:55.865Z,34.40
2023-04-26T15:51:23.322Z,34.40
2023-04-26T15:53:51.398Z,34.40
2023-04-26T15:56:19.112Z,34.60
2023-04-26T15:58:47.682Z,34.70
2023-04-26T16:01:15.336Z,34.80
2023-04-26T16:03:45.732Z,34.40
2023-04-26T16:06:15.053Z,34.50
2023-04-26T16:08:42.977Z,35.00
2023-04-26T16:11:10.506Z,35.50
2023-04-26T16:13:37.909Z,35.50
2023-04-26T16:16:10.481Z,35.40
2023-04-26T16:18:43.617Z,35.40
2023-04-26T16:21:12.917Z,35.40
2023-04-26T16:23:42.085Z,35.60
2023-04-26T16:26:09.705Z,36.00
2023-04-26T16:28:37.376Z,36.10
2023-04-26T16:31:06.305Z,36.20
2023-04-26T16:33:34.257Z,36.10
2023-04-26T16:36:01.701Z,35.80
2023-04-26T16:38:29.131Z,35.70
2023-04-26T16:41:01.590Z,35.70
2023-04-26T16:43:30.249Z,35.70
2023-04-26T16:46:05.221Z,36.00
2023-04-26T16:48:34.183Z,36.20
2023-04-26T16:51:07.451Z,36.40
2023-04-26T16:53:36.238Z,36.60
2023-04-26T16:56:04.479Z,36.70
2023-04-26T16:58:32.005Z,36.80
2023-04-26T17:00:59.440Z,36.40
2023-04-26T17:03:27.842Z,36.40
2023-04-26T17:05:55.375Z,36.60
2023-04-26T17:08:22.865Z,36.70
2023-04-26T17:10:51.619Z,36.70
2023-04-26T17:13:19.260Z,36.60
2023-04-26T17:15:47.141Z,36.90
2023-04-26T17:18:14.668Z,36.70
2023-04-26T17:20:42.229Z,36.50
2023-04-26T17:23:09.971Z,36.50
2023-04-26T17:25:37.633Z,36.80
2023-04-26T17:28:05.242Z,36.70
2023-04-26T17:30:32.787Z,37.00
2023-04-26T17:33:00.390Z,36.90
2023-04-26T17:35:28.160Z,37.00
2023-04-26T17:37:55.630Z,37.50
2023-04-26T17:40:23.594Z,36.90
2023-04-26T17:42:51.345Z,37.70
2023-04-26T17:45:18.840Z,37.00
2023-04-26T17:47:46.399Z,37.00
2023-04-26T17:50:15.324Z,37.30
2023-04-26T17:52:42.713Z,37.20
2023-04-26T17:55:10.337Z,37.10
2023-04-26T17:57:37.899Z,37.00
2023-04-26T18:00:10.152Z,36.90
2023-04-26T18:02:38.284Z,36.90
2023-04-26T18:05:08.514Z,37.20
2023-04-26T18:07:36.269Z,37.10
2023-04-26T18:10:04.205Z,37.10
2023-04-26T18:12:31.944Z,37.20
2023-04-26T18:15:00.230Z,37.20
2023-04-26T18:17:27.698Z,37.40
2023-04-26T18:19:54.942Z,37.50
2023-04-26T18:22:22.240Z,37.80
2023-04-26T18:24:49.757Z,37.60
2023-04-26T18:27:17.130Z,37.50
2023-04-26T18:29:44.442Z,37.60
2023-04-26T18:32:12.405Z,37.90
2023-04-26T18:34:40.046Z,37.90
2023-04-26T18:37:07.798Z,38.00
2023-04-26T18:39:35.338Z,38.10
2023-04-26T18:42:02.891Z,38.10
2023-04-26T18:44:30.297Z,38.40
2023-04-26T18:46:57.778Z,38.30
2023-04-26T18:49:27.098Z,38.70
2023-04-26T18:51:54.553Z,38.80
2023-04-26T18:54:22.392Z,38.90
2023-04-26T18:56:49.831Z,39.80
2023-04-26T18:59:17.372Z,41.60
2023-04-26T19:01:44.789Z,42.40
2023-04-26T19:04:12.322Z,43.70
2023-04-26T19:06:41.430Z,44.00
2023-04-26T19:09:11.578Z,44.60
2023-04-26T19:11:39.130Z,45.50
2023-04-26T19:14:06.538Z,45.60
2023-04-26T19:16:35.040Z,46.10
2023-04-26T19:19:03.232Z,47.00
2023-04-26T19:21:31.927Z,46.90
2023-04-26T19:23:59.317Z,47.20
2023-04-26T19:26:26.858Z,47.90
2023-04-26T19:28:55.697Z,48.40
2023-04-26T19:31:23.428Z,48.70
2023-04-26T19:33:50.923Z,48.70
2023-04-26T19:36:18.172Z,48.90
2023-04-26T19:38:45.600Z,48.80
2023-04-26T19:41:13.227Z,49.10
2023-04-26T19:43:40.751Z,49.20
2023-04-26T19:46:15.430Z,49.30
2023-04-26T19:48:43.120Z,50.80
2023-04-26T19:51:17.454Z,50.90
2023-04-26T19:53:45.038Z,51.90
2023-04-26T19:56:12.786Z,51.50
2023-04-26T19:58:40.298Z,51.60
2023-04-26T20:01:07.943Z,52.00
2023-04-26T20:03:37.520Z,51.80
2023-04-26T20:06:05.204Z,52.20
2023-04-26T20:08:34.515Z,52.30
2023-04-26T20:11:04.687Z,52.00
2023-04-26T20:13:32.766Z,52.40
2023-04-26T20:16:00.626Z,52.50
2023-04-26T20:18:28.301Z,52.40
2023-04-26T20:20:56.010Z,52.30
2023-04-26T20:23:23.481Z,52.30
2023-04-26T20:25:51.404Z,52.40
2023-04-26T20:28:19.238Z,52.60
2023-04-26T20:30:46.629Z,52.20
2023-04-26T20:33:14.366Z,51.50
2023-04-26T20:35:41.959Z,52.00
2023-04-26T20:38:09.635Z,52.40
2023-04-26T20:40:37.606Z,52.40
2023-04-26T20:43:04.986Z,52.30
2023-04-26T20:45:32.316Z,52.10
2023-04-26T20:47:59.657Z,52.00
2023-04-26T20:50:27.130Z,51.70
2023-04-26T20:52:54.599Z,51.70
2023-04-26T20:55:22.553Z,51.80
2023-04-26T20:57:50.175Z,51.70
2023-04-26T21:00:17.887Z,52.20
2023-04-26T21:02:45.380Z,53.60
2023-04-26T21:05:12.915Z,54.30
2023-04-26T21:07:40.397Z,54.90
2023-04-26T21:10:08.195Z,55.20
2023-04-26T21:12:36.097Z,54.50
2023-04-26T21:15:03.906Z,54.70
2023-04-26T21:17:31.279Z,54.50
2023-04-26T21:19:58.718Z,54.60
2023-04-26T21:22:25.902Z,54.60
2023-04-26T21:24:53.349Z,54.80
2023-04-26T21:27:20.850Z,54.60
2023-04-26T21:29:48.209Z,54.50
2023-04-26T21:32:15.598Z,54.60
2023-04-26T21:34:42.883Z,55.00
2023-04-26T21:37:10.521Z,54.50
2023-04-26T21:39:37.920Z,54.40
2023-04-26T21:42:05.635Z,54.20
2023-04-26T21:44:32.855Z,54.00
2023-04-26T21:47:00.572Z,54.40
2023-04-26T21:49:28.366Z,54.30
2023-04-26T21:51:55.797Z,55.00
2023-04-26T21:54:23.214Z,55.80
2023-04-26T21:56:51.108Z,56.10
2023-04-26T21:59:19.639Z,56.20
2023-04-26T22:01:47.321Z,56.20
2023-04-26T22:04:14.800Z,56.30
2023-04-26T22:06:42.282Z,56.40
2023-04-26T22:09:10.156Z,56.20
2023-04-26T22:11:37.595Z,56.20
2023-04-26T22:14:04.998Z,56.20
2023-04-26T22:16:32.362Z,56.00
2023-04-26T22:18:59.708Z,56.00
2023-04-26T22:21:28.273Z,56.00
2023-04-26T22:23:55.573Z,56.00
2023-04-26T22:26:22.932Z,55.90
2023-04-26T22:28:50.163Z,56.10
2023-04-26T22:31:17.666Z,56.30
2023-04-26T22:33:45.080Z,56.80
2023-04-26T22:36:12.960Z,56.70
2023-04-26T22:38:40.367Z,56.90
2023-04-26T22:41:07.686Z,56.80
2023-04-26T22:43:35.890Z,56.80
2023-04-26T22:46:03.321Z,57.00
2023-04-26T22:48:30.795Z,56.80
2023-04-26T22:50:59.758Z,56.40
2023-04-26T22:53:26.999Z,56.70
2023-04-26T22:55:54.413Z,56.90
2023-04-26T22:58:21.756Z,57.20
2023-04-26T23:00:49.014Z,57.50
2023-04-26T23:03:16.349Z,57.50
2023-04-26T23:05:43.988Z,57.60
2023-04-26T23:08:11.504Z,57.40
2023-04-26T23:10:39.997Z,57.80
2023-04-26T23:13:07.513Z,57.80
2023-04-26T23:15:34.813Z,58.20
2023-04-26T23:18:02.058Z,58.50
2023-04-26T23:20:29.363Z,58.70
2023-04-26T23:22:56.684Z,58.70
2023-04-26T23:25:24.090Z,58.80
2023-04-26T23:27:51.722Z,58.70
2023-04-26T23:30:19.295Z,58.60
2023-04-26T23:32:46.893Z,58.50
2023-04-26T23:35:14.519Z,58.30
2023-04-26T23:37:41.873Z,58.30
2023-04-26T23:40:10.230Z,58.30
2023-04-26T23:42:37.579Z,58.50
2023-04-26T23:45:05.410Z,58.60
2023-04-26T23:47:32.912Z,58.80
2023-04-26T23:50:00.483Z,59.10
2023-04-26T23:52:27.847Z,59.40
2023-04-26T23:54:55.077Z,59.40
2023-04-26T23:57:22.573Z,59.60
2023-04-26T23:59:49.819Z,59.10
